createdAt,value
2019-03-29T00:01:07.426Z,52.86
2019-03-29T00:03:37.458Z,52.94
2019-03-29T00:06:07.488Z,53.30
2019-03-29T00:08:37.548Z,53.38
2019-03-29T00:11:07.540Z,53.34
2019-03-29T00:13:37.550Z,53.31
2019-03-29T00:16:07.557Z,53.07
2019-03-29T00:18:39.373Z,53.48
2019-03-29T00:21:09.518Z,53.46
2019-03-29T00:23:39.575Z,53.72
2019-03-29T00:26:09.622Z,53.81
2019-03-29T00:28:39.646Z,53.75
2019-03-29T00:31:09.640Z,53.25
2019-03-29T00:33:39.706Z,53.40
2019-03-29T00:36:09.794Z,53.09
2019-03-29T00:38:39.829Z,52.88
2019-03-29T00:41:09.897Z,51.39
2019-03-29T00:43:39.936Z,50.29
2019-03-29T00:46:09.933Z,50.63
2019-03-29T00:48:39.986Z,50.27
2019-03-29T00:51:10.002Z,49.81
2019-03-29T00:53:39.989Z,50.18
2019-03-29T00:56:09.987Z,50.97
2019-03-29T00:58:40.005Z,51.82
2019-03-29T01:01:10.041Z,52.48
2019-03-29T01:03:40.078Z,52.46
2019-03-29T01:06:10.113Z,52.71
2019-03-29T01:08:40.137Z,52.79
2019-03-29T01:11:10.159Z,53.12
2019-03-29T01:13:40.144Z,53.60
2019-03-29T01:16:10.153Z,53.54
2019-03-29T01:18:40.148Z,53.99
2019-03-29T01:21:10.159Z,54.13
2019-03-29T01:23:40.223Z,54.19
2019-03-29T01:26:10.243Z,53.38
2019-03-29T01:28:40.285Z,52.16
2019-03-29T01:31:10.347Z,52.76
2019-03-29T01:33:40.390Z,52.74
2019-03-29T01:36:10.415Z,52.87
2019-03-29T01:38:40.482Z,53.37
2019-03-29T01:41:10.485Z,53.23
2019-03-29T01:43:40.486Z,52.90
2019-03-29T01:46:11.905Z,53.44
2019-03-29T01:48:42.051Z,52.55
2019-03-29T01:51:12.135Z,52.33
2019-03-29T01:53:42.175Z,51.95
2019-03-29T01:56:12.221Z,51.70
2019-03-29T01:58:42.222Z,50.61
2019-03-29T02:01:12.293Z,50.08
2019-03-29T02:03:42.312Z,50.58
2019-03-29T02:06:12.330Z,50.42
2019-03-29T02:08:42.339Z,49.94
2019-03-29T02:11:12.360Z,49.73
2019-03-29T02:13:42.376Z,49.28
2019-03-29T02:16:12.407Z,49.57
2019-03-29T02:18:42.413Z,49.22
2019-03-29T02:21:12.528Z,50.01
2019-03-29T02:23:42.575Z,50.99
2019-03-29T02:26:12.587Z,53.80
2019-03-29T02:28:42.734Z,51.85
2019-03-29T02:31:12.733Z,52.17
2019-03-29T02:33:42.787Z,52.05
2019-03-29T02:36:12.852Z,52.94
2019-03-29T02:38:55.223Z,53.08
2019-03-29T02:41:14.869Z,52.83
2019-03-29T02:43:44.925Z,52.12
2019-03-29T02:46:14.971Z,51.49
2019-03-29T02:48:45.155Z,51.42
2019-03-29T02:51:15.114Z,51.92
2019-03-29T02:53:45.093Z,53.06
2019-03-29T02:56:15.131Z,53.45
2019-03-29T02:58:45.169Z,54.28
2019-03-29T03:01:15.220Z,54.46
2019-03-29T03:03:45.240Z,54.65
2019-03-29T03:06:15.302Z,55.08
2019-03-29T03:08:45.324Z,55.59
2019-03-29T03:11:15.378Z,55.80
2019-03-29T03:13:45.500Z,55.99
2019-03-29T03:16:15.502Z,54.57
2019-03-29T03:18:45.556Z,54.29
2019-03-29T03:21:15.706Z,53.74
2019-03-29T03:23:45.677Z,53.79
2019-03-29T03:26:15.710Z,53.47
2019-03-29T03:28:45.746Z,52.90
2019-03-29T03:31:15.775Z,53.10
2019-03-29T03:33:45.808Z,53.01
2019-03-29T03:36:15.817Z,53.12
2019-03-29T03:38:45.842Z,53.19
2019-03-29T03:41:15.888Z,53.18
2019-03-29T03:43:45.937Z,53.35
2019-03-29T03:46:15.967Z,53.44
2019-03-29T03:48:45.999Z,53.49
2019-03-29T03:51:16.838Z,53.11
2019-03-29T03:53:46.926Z,53.40
2019-03-29T03:56:17.964Z,53.01
2019-03-29T03:58:48.759Z,53.84
2019-03-29T04:01:18.856Z,53.95
2019-03-29T04:03:48.923Z,53.42
2019-03-29T04:06:19.298Z,53.65
2019-03-29T04:08:49.337Z,54.19
2019-03-29T04:11:19.348Z,54.24
2019-03-29T04:13:49.394Z,54.86
2019-03-29T04:16:19.474Z,54.59
2019-03-29T04:18:49.534Z,54.17
2019-03-29T04:21:19.550Z,54.73
2019-03-29T04:23:49.565Z,54.99
2019-03-29T04:26:19.588Z,55.38
2019-03-29T04:29:03.393Z,55.28
2019-03-29T04:31:21.375Z,55.18
2019-03-29T04:33:51.380Z,54.90
2019-03-29T04:36:21.547Z,54.71
2019-03-29T04:38:51.596Z,54.78
2019-03-29T04:41:21.656Z,54.78
2019-03-29T04:43:51.735Z,54.96
2019-03-29T04:46:21.789Z,54.91
2019-03-29T04:48:51.798Z,54.79
2019-03-29T04:51:21.821Z,54.61
2019-03-29T04:53:51.893Z,54.18
2019-03-29T04:56:21.917Z,53.68
2019-03-29T04:58:51.963Z,52.95
2019-03-29T05:01:22.414Z,52.27
2019-03-29T05:03:52.467Z,51.52
2019-03-29T05:06:22.596Z,51.31
2019-03-29T05:08:52.816Z,50.60
2019-03-29T05:11:22.851Z,48.72
2019-03-29T05:13:52.908Z,48.54
2019-03-29T05:16:22.920Z,48.24
2019-03-29T05:18:53.107Z,48.86
2019-03-29T05:21:23.180Z,49.96
2019-03-29T05:23:53.189Z,50.22
2019-03-29T05:26:25.492Z,50.60
2019-03-29T05:28:55.023Z,49.92
2019-03-29T05:31:25.063Z,49.50
2019-03-29T05:33:55.077Z,49.53
2019-03-29T05:36:25.114Z,49.48
2019-03-29T05:38:55.224Z,49.80
2019-03-29T05:41:25.317Z,49.63
2019-03-29T05:43:55.404Z,49.58
2019-03-29T05:46:25.432Z,49.36
2019-03-29T05:48:55.482Z,49.40
2019-03-29T05:51:26.059Z,49.29
2019-03-29T05:53:56.075Z,49.29
2019-03-29T05:56:26.080Z,49.19
2019-03-29T05:58:56.141Z,49.05
2019-03-29T06:01:26.147Z,48.79
2019-03-29T06:03:56.216Z,48.58
2019-03-29T06:06:26.261Z,48.45
2019-03-29T06:08:56.349Z,48.43
2019-03-29T06:11:26.409Z,48.55
2019-03-29T06:13:56.411Z,48.31
2019-03-29T06:16:38.315Z,48.38
2019-03-29T06:18:58.188Z,47.83
2019-03-29T06:21:28.237Z,47.92
2019-03-29T06:23:58.334Z,47.40
2019-03-29T06:26:28.383Z,47.60
2019-03-29T06:28:58.433Z,47.27
2019-03-29T06:31:28.490Z,46.98
2019-03-29T06:33:58.513Z,46.79
2019-03-29T06:36:30.545Z,46.74
2019-03-29T06:39:02.002Z,46.49
2019-03-29T06:41:32.062Z,46.44
2019-03-29T06:44:02.118Z,46.27
2019-03-29T06:46:32.171Z,46.00
2019-03-29T06:49:02.231Z,46.04
2019-03-29T06:51:32.241Z,46.01
2019-03-29T06:54:02.307Z,45.85
2019-03-29T06:56:32.344Z,45.64
2019-03-29T06:59:02.380Z,45.57
2019-03-29T07:01:32.796Z,45.40
2019-03-29T07:04:02.873Z,45.48
2019-03-29T07:06:32.894Z,45.57
2019-03-29T07:09:03.010Z,44.64
2019-03-29T07:11:33.078Z,44.51
2019-03-29T07:14:03.399Z,44.11
2019-03-29T07:16:35.207Z,44.05
2019-03-29T07:19:05.334Z,43.46
2019-03-29T07:21:35.360Z,43.55
2019-03-29T07:24:05.436Z,43.12
2019-03-29T07:26:35.456Z,42.23
2019-03-29T07:29:05.494Z,42.21
2019-03-29T07:31:35.548Z,41.38
2019-03-29T07:34:05.601Z,41.38
2019-03-29T07:36:35.706Z,41.06
2019-03-29T07:39:06.563Z,40.29
2019-03-29T07:41:36.624Z,39.70
2019-03-29T07:44:06.730Z,39.37
2019-03-29T07:46:36.736Z,39.16
2019-03-29T07:49:06.868Z,38.87
2019-03-29T07:51:36.901Z,38.39
2019-03-29T07:54:06.945Z,36.22
2019-03-29T07:56:37.129Z,35.79
2019-03-29T07:59:07.154Z,35.83
2019-03-29T08:01:37.196Z,35.94
2019-03-29T08:04:07.225Z,34.62
2019-03-29T08:06:37.259Z,34.73
2019-03-29T08:09:21.331Z,34.91
2019-03-29T08:11:46.176Z,34.47
2019-03-29T08:14:14.783Z,34.60
2019-03-29T08:16:43.240Z,33.93
2019-03-29T08:19:13.241Z,33.64
2019-03-29T08:21:43.261Z,33.90
2019-03-29T08:24:13.298Z,33.70
2019-03-29T08:26:43.443Z,33.40
2019-03-29T08:29:13.457Z,33.09
2019-03-29T08:31:43.536Z,33.32
2019-03-29T08:34:13.643Z,33.38
2019-03-29T08:36:43.730Z,33.18
2019-03-29T08:39:27.206Z,32.97
2019-03-29T08:41:59.550Z,33.20
2019-03-29T08:44:18.804Z,32.79
2019-03-29T08:46:48.833Z,32.94
2019-03-29T08:49:18.834Z,32.76
2019-03-29T08:51:48.891Z,32.96
2019-03-29T08:54:18.870Z,33.03
2019-03-29T08:56:49.007Z,32.56
2019-03-29T08:59:19.041Z,32.36
2019-03-29T09:01:49.324Z,32.24
2019-03-29T09:04:21.722Z,32.46
2019-03-29T09:06:53.781Z,32.73
2019-03-29T09:09:22.948Z,32.71
2019-03-29T09:11:53.018Z,32.78
2019-03-29T09:14:23.027Z,32.75
2019-03-29T09:16:56.302Z,32.50
2019-03-29T09:19:26.330Z,32.84
2019-03-29T09:21:56.396Z,32.71
2019-03-29T09:24:26.404Z,32.50
2019-03-29T09:26:56.414Z,32.13
2019-03-29T09:29:26.487Z,32.58
2019-03-29T09:31:56.615Z,32.35
2019-03-29T09:34:28.852Z,32.39
2019-03-29T09:37:00.051Z,32.11
2019-03-29T09:39:30.154Z,31.90
2019-03-29T09:42:00.388Z,31.38
2019-03-29T09:44:30.483Z,31.83
2019-03-29T09:47:00.548Z,31.45
2019-03-29T09:49:30.568Z,31.38
2019-03-29T09:52:00.627Z,31.04
2019-03-29T09:54:30.650Z,31.23
2019-03-29T09:57:00.645Z,31.28
2019-03-29T09:59:30.755Z,30.73
2019-03-29T10:02:01.035Z,31.08
2019-03-29T10:04:31.110Z,31.13
2019-03-29T10:07:01.159Z,30.89
2019-03-29T10:09:31.175Z,31.14
2019-03-29T10:12:01.326Z,30.93
2019-03-29T10:14:33.462Z,29.15
2019-03-29T10:17:03.139Z,29.29
2019-03-29T10:19:33.173Z,29.30
2019-03-29T10:22:03.219Z,29.49
2019-03-29T10:24:33.229Z,29.06
2019-03-29T10:27:03.219Z,29.67
2019-03-29T10:29:33.270Z,29.43
2019-03-29T10:32:06.367Z,29.82
2019-03-29T10:34:37.502Z,29.53
2019-03-29T10:37:06.786Z,29.70
2019-03-29T10:39:36.829Z,29.21
2019-03-29T10:42:06.861Z,29.50
2019-03-29T10:44:36.959Z,29.48
2019-03-29T10:47:07.327Z,29.25
2019-03-29T10:49:37.359Z,29.38
2019-03-29T10:52:07.376Z,29.59
2019-03-29T10:54:37.424Z,29.07
2019-03-29T10:57:07.464Z,29.31
2019-03-29T10:59:37.513Z,29.44
2019-03-29T11:02:07.610Z,29.67
2019-03-29T11:04:37.651Z,29.14
2019-03-29T11:07:07.830Z,28.92
2019-03-29T11:09:37.849Z,28.72
2019-03-29T11:12:07.873Z,29.29
2019-03-29T11:14:37.993Z,29.23
2019-03-29T11:17:08.040Z,29.23
2019-03-29T11:19:38.127Z,29.31
2019-03-29T11:22:08.173Z,29.51
2019-03-29T11:24:38.180Z,29.45
2019-03-29T11:27:08.222Z,29.12
2019-03-29T11:29:38.258Z,28.94
2019-03-29T11:32:08.554Z,29.16
2019-03-29T11:34:38.574Z,28.95
2019-03-29T11:37:08.686Z,29.26
2019-03-29T11:39:38.712Z,29.10
2019-03-29T11:42:08.807Z,29.29
2019-03-29T11:44:38.860Z,29.50
2019-03-29T11:47:08.969Z,29.32
2019-03-29T11:49:38.970Z,28.98
2019-03-29T11:52:09.111Z,29.25
2019-03-29T11:54:39.221Z,29.56
2019-03-29T11:57:09.249Z,29.63
2019-03-29T11:59:40.279Z,29.66
2019-03-29T12:02:10.642Z,29.31
2019-03-29T12:04:40.725Z,29.13
2019-03-29T12:07:10.826Z,29.36
2019-03-29T12:09:40.936Z,29.27
2019-03-29T12:12:11.325Z,29.60
2019-03-29T12:14:41.358Z,29.36
2019-03-29T12:17:11.421Z,29.05
2019-03-29T12:19:41.467Z,29.11
2019-03-29T12:22:11.529Z,29.30
2019-03-29T12:24:41.663Z,29.62
2019-03-29T12:27:11.666Z,28.76
2019-03-29T12:29:41.803Z,28.68
2019-03-29T12:32:11.815Z,28.57
2019-03-29T12:34:42.514Z,28.26
2019-03-29T12:37:12.566Z,28.07
2019-03-29T12:39:42.823Z,28.11
2019-03-29T12:42:12.885Z,28.63
2019-03-29T12:44:42.892Z,28.87
2019-03-29T12:47:12.940Z,29.19
2019-03-29T12:49:43.009Z,28.98
2019-03-29T12:52:13.029Z,29.04
2019-03-29T12:54:43.140Z,29.06
2019-03-29T12:57:13.199Z,28.93
2019-03-29T12:59:43.245Z,28.85
2019-03-29T13:02:13.480Z,29.06
2019-03-29T13:04:46.788Z,28.80
2019-03-29T13:07:15.259Z,28.60
2019-03-29T13:09:45.305Z,28.86
2019-03-29T13:12:15.319Z,29.39
2019-03-29T13:14:45.369Z,29.52
2019-03-29T13:17:15.663Z,29.24
2019-03-29T13:19:45.723Z,29.58
2019-03-29T13:22:15.958Z,29.80
2019-03-29T13:24:45.990Z,29.85
2019-03-29T13:27:16.140Z,28.79
2019-03-29T13:29:46.185Z,28.95
2019-03-29T13:32:16.263Z,29.14
2019-03-29T13:34:46.313Z,29.09
2019-03-29T13:37:16.290Z,29.37
2019-03-29T13:39:46.272Z,28.99
2019-03-29T13:42:16.283Z,29.39
2019-03-29T13:44:46.342Z,29.62
2019-03-29T13:47:17.927Z,29.16
2019-03-29T13:49:48.093Z,29.06
2019-03-29T13:52:18.145Z,29.27
2019-03-29T13:54:48.232Z,29.37
2019-03-29T13:57:18.239Z,29.50
2019-03-29T13:59:48.298Z,29.82
2019-03-29T14:02:18.350Z,29.84
2019-03-29T14:04:48.390Z,29.85
2019-03-29T14:07:18.422Z,29.77
2019-03-29T14:09:48.472Z,29.96
2019-03-29T14:12:18.560Z,30.06
2019-03-29T14:14:48.592Z,29.91
2019-03-29T14:17:18.590Z,29.93
2019-03-29T14:19:48.592Z,29.86
2019-03-29T14:22:18.631Z,29.81
2019-03-29T14:24:48.655Z,29.94
2019-03-29T14:27:18.711Z,29.88
2019-03-29T14:29:48.724Z,30.35
2019-03-29T14:32:18.783Z,30.39
2019-03-29T14:34:48.805Z,30.01
2019-03-29T14:37:18.800Z,30.16
2019-03-29T14:39:48.820Z,30.20
2019-03-29T14:42:18.893Z,30.42
2019-03-29T14:44:52.688Z,30.54
2019-03-29T14:47:20.766Z,30.27
2019-03-29T14:49:50.784Z,30.50
2019-03-29T14:52:20.882Z,30.48
2019-03-29T14:54:50.915Z,30.44
2019-03-29T14:57:21.912Z,30.58
2019-03-29T14:59:51.961Z,30.58
2019-03-29T15:02:22.487Z,30.60
2019-03-29T15:04:52.530Z,30.70
2019-03-29T15:07:22.805Z,30.65
2019-03-29T15:09:53.897Z,30.48
2019-03-29T15:12:23.903Z,30.20
2019-03-29T15:15:05.514Z,30.57
2019-03-29T15:17:25.717Z,30.34
2019-03-29T15:19:55.792Z,30.43
2019-03-29T15:22:25.801Z,30.43
2019-03-29T15:24:55.876Z,30.45
2019-03-29T15:27:25.935Z,30.34
2019-03-29T15:29:55.951Z,30.20
2019-03-29T15:32:26.026Z,29.93
2019-03-29T15:34:56.057Z,30.16
2019-03-29T15:37:26.092Z,30.33
2019-03-29T15:39:56.111Z,30.76
2019-03-29T15:42:26.114Z,30.78
2019-03-29T15:44:56.162Z,30.81
2019-03-29T15:47:26.202Z,31.10
2019-03-29T15:49:56.673Z,31.11
2019-03-29T15:52:26.758Z,31.25
2019-03-29T15:54:56.788Z,31.61
2019-03-29T15:57:26.844Z,31.92
2019-03-29T15:59:56.899Z,32.67
2019-03-29T16:02:26.920Z,32.90
2019-03-29T16:04:56.995Z,33.21
2019-03-29T16:07:27.032Z,33.43
2019-03-29T16:09:57.091Z,33.54
2019-03-29T16:12:27.137Z,33.47
2019-03-29T16:14:57.190Z,33.81
2019-03-29T16:17:27.241Z,33.76
2019-03-29T16:19:57.298Z,33.99
2019-03-29T16:22:27.390Z,34.12
2019-03-29T16:24:57.438Z,34.25
2019-03-29T16:27:27.490Z,34.59
2019-03-29T16:29:57.508Z,34.79
2019-03-29T16:32:27.520Z,35.17
2019-03-29T16:34:57.575Z,35.41
2019-03-29T16:37:27.614Z,35.53
2019-03-29T16:39:57.615Z,35.72
2019-03-29T16:42:27.639Z,36.06
2019-03-29T16:44:57.651Z,36.25
2019-03-29T16:47:27.636Z,36.13
2019-03-29T16:49:57.642Z,36.68
2019-03-29T16:52:27.636Z,36.80
2019-03-29T16:54:57.725Z,37.02
2019-03-29T16:57:27.733Z,37.08
2019-03-29T16:59:57.759Z,37.26
2019-03-29T17:02:27.867Z,37.50
2019-03-29T17:04:58.264Z,37.53
2019-03-29T17:07:28.272Z,37.71
2019-03-29T17:09:58.309Z,37.85
2019-03-29T17:12:28.362Z,38.18
2019-03-29T17:14:58.432Z,38.45
2019-03-29T17:17:28.481Z,38.75
2019-03-29T17:19:58.502Z,39.04
2019-03-29T17:22:28.566Z,39.13
2019-03-29T17:24:58.677Z,39.55
2019-03-29T17:27:28.895Z,39.72
2019-03-29T17:29:58.971Z,39.97
2019-03-29T17:32:29.207Z,40.15
2019-03-29T17:34:59.351Z,40.21
2019-03-29T17:37:29.534Z,40.37
2019-03-29T17:39:59.577Z,40.62
2019-03-29T17:42:29.591Z,40.90
2019-03-29T17:44:59.713Z,41.01
2019-03-29T17:47:30.009Z,41.37
2019-03-29T17:50:00.040Z,41.40
2019-03-29T17:52:30.043Z,41.62
2019-03-29T17:55:00.162Z,42.01
2019-03-29T17:57:30.688Z,41.82
2019-03-29T18:00:00.669Z,41.83
2019-03-29T18:02:30.896Z,41.79
2019-03-29T18:05:00.943Z,41.93
2019-03-29T18:07:31.049Z,41.95
2019-03-29T18:10:01.181Z,41.96
2019-03-29T18:12:32.725Z,41.92
2019-03-29T18:15:02.910Z,42.01
2019-03-29T18:17:33.269Z,42.02
2019-03-29T18:20:03.366Z,42.03
2019-03-29T18:22:33.766Z,41.96
2019-03-29T18:25:03.794Z,42.20
2019-03-29T18:27:35.312Z,42.37
2019-03-29T18:30:06.120Z,42.77
2019-03-29T18:32:36.423Z,42.99
2019-03-29T18:35:07.327Z,43.28
2019-03-29T18:37:37.514Z,43.46
2019-03-29T18:40:10.737Z,43.87
2019-03-29T18:42:40.756Z,43.99
2019-03-29T18:45:10.924Z,44.12
2019-03-29T18:47:40.968Z,44.27
2019-03-29T18:50:11.096Z,44.43
2019-03-29T18:52:42.791Z,44.63
2019-03-29T18:55:13.098Z,44.63
2019-03-29T18:57:45.112Z,44.68
2019-03-29T19:00:17.145Z,44.83
2019-03-29T19:02:47.279Z,44.94
2019-03-29T19:05:25.585Z,45.10
2019-03-29T19:07:55.640Z,45.21
2019-03-29T19:10:25.824Z,45.26
2019-03-29T19:12:55.944Z,45.34
2019-03-29T19:15:26.194Z,45.45
2019-03-29T19:17:56.512Z,45.47
2019-03-29T19:20:28.255Z,45.44
2019-03-29T19:22:58.311Z,45.51
2019-03-29T19:25:28.321Z,45.76
2019-03-29T19:27:58.479Z,45.72
2019-03-29T19:30:28.633Z,45.63
2019-03-29T19:32:58.620Z,45.74
2019-03-29T19:35:28.778Z,45.63
2019-03-29T19:38:01.762Z,46.11
2019-03-29T19:40:31.905Z,45.75
2019-03-29T19:43:01.981Z,45.74
2019-03-29T19:45:34.315Z,45.88
2019-03-29T19:48:03.899Z,46.09
2019-03-29T19:50:34.004Z,46.24
2019-03-29T19:53:04.027Z,46.48
2019-03-29T19:55:34.259Z,46.45
2019-03-29T19:58:04.442Z,46.42
2019-03-29T20:00:39.268Z,46.42
2019-03-29T20:03:09.524Z,46.61
2019-03-29T20:05:39.842Z,46.73
2019-03-29T20:08:09.955Z,46.83
2019-03-29T20:10:39.967Z,46.96
2019-03-29T20:13:09.988Z,47.09
2019-03-29T20:15:40.022Z,47.27
2019-03-29T20:18:10.139Z,47.07
2019-03-29T20:20:40.224Z,47.32
2019-03-29T20:23:10.550Z,47.30
2019-03-29T20:25:40.621Z,47.41
2019-03-29T20:28:10.660Z,47.44
2019-03-29T20:30:40.808Z,47.54
2019-03-29T20:33:13.353Z,47.32
2019-03-29T20:35:42.693Z,47.20
2019-03-29T20:38:12.828Z,47.42
2019-03-29T20:40:42.846Z,47.62
2019-03-29T20:43:12.902Z,47.79
2019-03-29T20:45:42.988Z,47.86
2019-03-29T20:48:13.038Z,48.02
2019-03-29T20:50:43.074Z,47.99
2019-03-29T20:53:13.136Z,47.94
2019-03-29T20:55:43.241Z,47.66
2019-03-29T20:58:13.259Z,48.03
2019-03-29T21:00:43.312Z,48.23
2019-03-29T21:03:13.327Z,48.40
2019-03-29T21:05:43.382Z,48.56
2019-03-29T21:08:13.457Z,48.66
2019-03-29T21:10:54.918Z,48.87
2019-03-29T21:13:15.272Z,48.95
2019-03-29T21:15:45.373Z,49.15
2019-03-29T21:18:17.460Z,49.25
2019-03-29T21:20:47.437Z,49.39
2019-03-29T21:23:17.445Z,49.58
2019-03-29T21:25:47.513Z,49.81
2019-03-29T21:28:17.625Z,49.98
2019-03-29T21:30:47.654Z,49.95
2019-03-29T21:33:17.739Z,49.96
2019-03-29T21:35:47.778Z,50.39
2019-03-29T21:38:17.856Z,50.66
2019-03-29T21:40:47.942Z,50.78
2019-03-29T21:43:17.992Z,50.96
2019-03-29T21:45:48.409Z,50.82
2019-03-29T21:48:28.753Z,51.01
2019-03-29T21:50:50.334Z,50.80
2019-03-29T21:53:20.411Z,50.81
2019-03-29T21:55:50.496Z,50.75
2019-03-29T21:58:20.510Z,50.75
2019-03-29T22:00:50.546Z,50.72
2019-03-29T22:03:20.566Z,50.72
2019-03-29T22:05:50.629Z,50.50
2019-03-29T22:08:20.721Z,50.30
2019-03-29T22:10:50.760Z,50.43
2019-03-29T22:13:20.769Z,50.31
2019-03-29T22:15:50.803Z,50.50
2019-03-29T22:18:20.828Z,50.54
2019-03-29T22:20:50.857Z,50.70
2019-03-29T22:23:20.910Z,51.04
2019-03-29T22:25:50.951Z,51.16
2019-03-29T22:28:20.972Z,51.27
2019-03-29T22:30:51.036Z,51.49
2019-03-29T22:33:21.077Z,51.56
2019-03-29T22:35:51.088Z,51.57
2019-03-29T22:38:21.160Z,51.49
2019-03-29T22:40:51.167Z,51.54
2019-03-29T22:43:21.229Z,51.59
2019-03-29T22:45:51.269Z,51.50
2019-03-29T22:48:21.314Z,51.43
2019-03-29T22:50:51.381Z,51.17
2019-03-29T22:53:21.479Z,51.07
2019-03-29T22:55:51.523Z,51.07
2019-03-29T22:58:21.561Z,51.19
2019-03-29T23:00:55.277Z,51.20
2019-03-29T23:03:25.505Z,51.44
2019-03-29T23:05:55.560Z,51.39
2019-03-29T23:08:25.568Z,51.52
2019-03-29T23:10:55.601Z,51.62
2019-03-29T23:13:25.606Z,51.68
2019-03-29T23:15:55.627Z,51.69
2019-03-29T23:18:25.678Z,51.79
2019-03-29T23:20:55.780Z,51.82
2019-03-29T23:23:25.778Z,51.76
2019-03-29T23:25:55.785Z,51.73
2019-03-29T23:28:25.816Z,51.60
2019-03-29T23:30:55.809Z,51.62
2019-03-29T23:33:25.846Z,51.67
2019-03-29T23:35:55.846Z,51.41
2019-03-29T23:38:25.877Z,51.51
2019-03-29T23:40:55.894Z,51.57
2019-03-29T23:43:25.910Z,51.50
2019-03-29T23:45:55.955Z,51.46
2019-03-29T23:48:25.965Z,51.13
2019-03-29T23:50:56.005Z,51.06
2019-03-29T23:53:26.060Z,50.93
2019-03-29T23:55:56.055Z,51.70
2019-03-29T23:58:26.078Z,51.85
